Flight Track Log - Related Links

Times and Time Zones

All times are in EDT time to prevent confusion due to time zone crossing. See the DAL268 flight status page for this flight to view local times or setup timezone preferences in your user account.

Time Position Orientation Groundspeed Altitude Reporting Facility
EDT Latitude Longitude Course Direction KTS MPH feet Rate Location/Type
Tue 09:37:43 PM 40.6580 -73.7610 180° South 72 83  Level FlightAware ADS-B
Tue 09:38:03 PM 40.6480 -73.7680 208° Southwest 145 167 300 Level FlightAware ADS-B
Tue 09:38:23 PM 40.6350 -73.7790 213° Southwest 186 214 200 1,200 Climbing FlightAware ADS-B
Tue 09:38:43 PM 40.6200 -73.7900 209° Southwest 189 217 800 1,950 Climbing FlightAware ADS-B
Tue 09:39:03 PM 40.6030 -73.8010 206° Southwest 194 223 1,500 1,429 Climbing FlightAware ADS-B
Tue 09:39:25 PM 40.5840 -73.8130 206° Southwest 223 257 1,800 800 Climbing FlightAware ADS-B
Tue 09:39:33 PM 40.5750 -73.8160 194° South 235 270 1,900 750 Climbing FlightAware ADS-B
Tue 09:39:41 PM 40.5670 -73.8170 185° South 246 283 2,000 1,200 Climbing FlightAware ADS-B
Tue 09:39:53 PM 40.5520 -73.8140 171° South 258 297 2,300 1,200 Climbing FlightAware ADS-B
Tue 09:40:01 PM 40.5440 -73.8090 155° Southeast 265 305 2,400 750 Climbing FlightAware ADS-B
Tue 09:40:09 PM 40.5360 -73.8020 146° Southeast 270 311 2,500 500 Climbing FlightAware ADS-B
Tue 09:40:13 PM 40.5320 -73.7960 131° Southeast 274 315 2,500 1,000 Level FlightAware ADS-B
Tue 09:40:21 PM 40.5260 -73.7850 126° Southeast 278 320 2,700 1,500 Climbing FlightAware ADS-B
Tue 09:40:29 PM 40.5220 -73.7720 112° Southeast 282 325 2,900 1,500 Climbing FlightAware ADS-B
Tue 09:40:41 PM 40.5190 -73.7520 101° East 286 329 3,200 1,800 Climbing FlightAware ADS-B
Tue 09:40:49 PM 40.5180 -73.7380 95° East 287 330 3,500 2,400 Climbing FlightAware ADS-B
Tue 09:41:11 PM 40.5220 -73.7010 82° East 290 334 4,400 2,429 Climbing FlightAware ADS-B
Tue 09:41:31 PM 40.5280 -73.6660 77° East 292 336 5,200 2,333 Climbing FlightAware ADS-B
Tue 09:41:47 PM 40.5370 -73.6400 66° East 294 338 5,800 2,000 Climbing FlightAware ADS-B
Tue 09:41:58 PM 40.5460 -73.6240 53° Northeast 298 343 6,100 2,063 Climbing FlightAware ADS-B
Tue 09:42:19 PM 40.5650 -73.5960 48° Northeast 305 351 6,900 2,667 Climbing FlightAware ADS-B
Tue 09:42:34 PM 40.5740 -73.5690 66° East 309 356 7,700 2,500 Climbing FlightAware ADS-B
Tue 09:42:43 PM 40.5770 -73.5530 76° East 316 364 7,900 1,765 Climbing FlightAware ADS-B
Tue 09:43:08 PM 40.5730 -73.5060 96° East 329 379 8,700 2,082 Climbing FlightAware ADS-B
Tue 09:43:32 PM 40.5590 -73.4610 112° Southeast 337 388 9,600 2,057 Climbing FlightAware ADS-B
Tue 09:43:43 PM 40.5530 -73.4420 113° Southeast 340 391 9,900 1,532 Climbing FlightAware ADS-B
Tue 09:44:19 PM 40.5300 -73.3690 112° Southeast 365 420 10,800 1,315 Climbing FlightAware ADS-B
Tue 09:44:56 PM 40.5060 -73.2900 112° Southeast 394 453 11,500 882 Climbing FlightAware ADS-B
Tue 09:45:27 PM 40.4830 -73.2200 113° Southeast 423 487 11,800 682 Climbing FlightAware ADS-B
Tue 09:45:40 PM 40.4715 -73.1860 114° Southeast 437 503 12,000 1,200 Climbing FlightAware ADS-B (KSNC)
Tue 09:46:12 PM 40.4430 -73.1042 115° Southeast 451 519 12,700 1,437 Climbing FlightAware ADS-B (KSNC)
Tue 09:46:51 PM 40.4087 -73.0067 115° Southeast 472 543 13,700 1,606 Climbing FlightAware ADS-B (KSNC)
Tue 09:47:23 PM 40.3797 -72.9255 115° Southeast 482 555 14,600 1,645 Climbing FlightAware ADS-B (KSNC)
Tue 09:47:53 PM 40.3504 -72.8420 115° Southeast 491 565 15,400 1,714 Climbing FlightAware ADS-B (KSNC)
Tue 09:48:26 PM 40.3200 -72.7520 114° Southeast 496 571 16,400 1,800 Climbing FlightAware ADS-B
Tue 09:48:33 PM 40.3138 -72.7299 110° East 498 573 16,600 1,404 Climbing FlightAware ADS-B (KSNC)
Tue 09:49:13 PM 40.3030 -72.6180 97° East 497 572 17,500 1,548 Climbing FlightAware ADS-B
Tue 09:49:35 PM 40.3100 -72.5480 83° East 491 565 18,200 1,902 Climbing FlightAware ADS-B
Tue 09:49:54 PM 40.3200 -72.4910 77° East 496 571 18,800 1,500 Climbing FlightAware ADS-B (KSNC)
Tue 09:50:27 PM 40.3340 -72.4100 77° East 497 572 19,500 1,385 Climbing FlightAware ADS-B
Tue 09:50:59 PM 40.3520 -72.3040 77° East 505 581 20,300 1,417 Climbing FlightAware ADS-B
Tue 09:51:39 PM 40.3740 -72.1780 77° East 514 592 21,200 1,214 Climbing FlightAware ADS-B
Tue 09:52:23 PM 40.3970 -72.0460 77° East 523 602 22,000 692 Climbing FlightAware ADS-B
Tue 09:52:57 PM 40.4140 -71.9500 77° East 524 603 22,100 1,130 Climbing FlightAware ADS-B
Tue 09:53:32 PM 40.4340 -71.8270 78° East 535 616 23,300 1,565 Climbing FlightAware ADS-B
Tue 09:54:06 PM 40.4520 -71.7220 77° East 539 620 23,900 1,167 Climbing FlightAware ADS-B
Tue 09:54:44 PM 40.4720 -71.6000 78° East 542 624 24,700 1,219 Climbing FlightAware ADS-B
Tue 09:55:10 PM 40.4870 -71.5140 77° East 545 627 25,200 1,043 Climbing FlightAware ADS-B
Tue 09:55:53 PM 40.5100 -71.3740 78° East 549 632 25,900 1,169 Climbing FlightAware ADS-B
Tue 09:56:27 PM 40.5280 -71.2660 78° East 544 626 26,700 1,360 Climbing FlightAware ADS-B
Tue 09:57:08 PM 40.5500 -71.1330 78° East 542 624 27,600 1,308 Climbing FlightAware ADS-B
Tue 09:57:45 PM 40.5690 -71.0120 78° East 540 621 28,400 1,286 Climbing FlightAware ADS-B
Tue 09:58:18 PM 40.5860 -70.9060 78° East 538 619 29,100 811 Climbing FlightAware ADS-B
Tue 09:58:59 PM 40.6050 -70.7890 78° East 537 618 29,400 234 Climbing FlightAware ADS-B
Tue 09:59:35 PM 40.6210 -70.6910 78° East 537 618 29,400  Level FlightAware ADS-B
Tue 10:00:12 PM 40.6370 -70.5900 78° East 537 618 29,400  Level FlightAware ADS-B
Tue 10:00:48 PM 40.6530 -70.4920 78° East 537 618 29,400  Level FlightAware ADS-B
Tue 10:01:24 PM 40.6690 -70.3940 78° East 537 618 29,400  Level FlightAware ADS-B
Tue 10:02:00 PM 40.6850 -70.2960 78° East 537 618 29,400 2,167 Level FlightAware ADS-B
Tue 10:02:36 PM 40.6922 -70.1067 78° East 526 605 32,000 2,000 Climbing New York Center
Tue 10:03:36 PM 40.7222 -69.9122 78° East 526 605 32,600 500 Climbing New York Center
Tue 10:04:36 PM 40.7481 -69.7228 80° East 526 605 33,000 198 Climbing New York Center
Tue 10:05:37 PM 40.7775 -69.5281 79° East 526 605 33,000  Level New York Center
Tue 10:06:38 PM 40.8044 -69.3411 79° East 526 605 33,000  Level New York Center
Tue 10:07:36 PM 40.8314 -69.1542 79° East 526 605 33,000  Level New York Center
Tue 10:08:35 PM 40.8600 -68.9614 79° East 526 605 33,000  Level New York Center
Tue 10:09:36 PM 40.8842 -68.7769 80° East 526 605 33,000  Level New York Center
Tue 10:10:36 PM 40.9122 -68.5842 79° East 526 605 33,000  Level New York Center
Tue 10:11:38 PM 40.9358 -68.4047 80° East 532 612 33,000  Level New York Center
Tue 10:12:35 PM 40.9633 -68.2117 79° East 532 612 33,000  Level New York Center
Tue 10:13:36 PM 40.9861 -68.0183 81° East 532 612 33,000  Level New York Center
Tue 10:14:37 PM 41.0128 -67.8194 80° East 538 619 33,000  Level New York Center
Tue 10:15:35 PM 41.0389 -67.6203 80° East 543 625 33,000  Level New York Center
Tue 10:16:36 PM 41.0669 -67.4181 80° East 549 632 33,000  Level New York Center
Tue 10:20:47 PM 41.1167 -67.0000 78° East 548 631 33,000  Level New York Oceanic (ODAPS)
Tue 10:22:43 PM 47.2870 -65.4590 80° East 33,000  Level FlightAware ADS-B
Tue 10:23:33 PM 47.2080 -65.2980 126° Southeast 556 640 33,000  Level FlightAware ADS-B
Tue 10:24:11 PM 47.2240 -65.1780 79° East 556 640 33,000  Level FlightAware ADS-B
Tue 10:24:48 PM 47.2390 -65.0610 79° East 556 640 33,000  Level FlightAware ADS-B
Tue 10:25:24 PM 47.2540 -64.9470 79° East 556 640 33,000  Level FlightAware ADS-B
Tue 10:26:00 PM 47.2690 -64.8330 79° East 556 640 33,000  Level FlightAware ADS-B
Tue 10:26:28 PM 47.3920 -64.6200 78° East 33,000  Level FlightAware ADS-B
Tue 10:26:53 PM 47.3020 -64.5470 151° Southeast 558 642 33,000  Level FlightAware ADS-B
Tue 10:27:43 PM 41.3260 -65.2000 185° South 561 646 33,000  Level FlightAware ADS-B
Tue 10:28:20 PM 41.3400 -65.0930 80° East 561 646 33,000  Level FlightAware ADS-B
Tue 10:28:48 PM 41.3570 -64.9710 79° East 564 649 33,000  Level FlightAware ADS-B
Tue 10:29:33 PM 41.3760 -64.8340 79° East 566 651 33,000  Level FlightAware ADS-B
Tue 10:30:12 PM 41.3910 -64.7200 80° East 566 651 33,000  Level FlightAware ADS-B
Tue 10:30:43 PM 41.4080 -64.5940 80° East 569 655 33,000  Level FlightAware ADS-B
Tue 10:31:33 PM 41.4320 -64.4080 80° East 570 656 33,000  Level FlightAware ADS-B
Tue 10:32:13 PM 41.4510 -64.2650 80° East 571 657 33,000  Level FlightAware ADS-B
Tue 10:33:06 PM 41.4700 -64.1140 80° East 572 658 33,000  Level FlightAware ADS-B
Tue 10:33:38 PM 41.4870 -63.9800 80° East 573 659 33,000  Level FlightAware ADS-B
Tue 10:34:18 PM 41.5040 -63.8480 80° East 572 658 33,000  Level FlightAware ADS-B
Tue 10:34:55 PM 41.5170 -63.7380 81° East 572 658 33,000  Level FlightAware ADS-B
Tue 10:35:33 PM 41.5390 -63.5700 80° East 573 659 33,000  Level FlightAware ADS-B
Tue 10:36:08 PM 41.5520 -63.4600 81° East 573 659 33,000  Level FlightAware ADS-B
Tue 10:36:51 PM 41.5700 -63.3130 81° East 573 659 33,000  Level FlightAware ADS-B
Tue 10:37:33 PM 41.5880 -63.1690 80° East 571 657 33,000  Level FlightAware ADS-B
Tue 10:38:23 PM 41.6080 -62.9980 81° East 570 656 33,000  Level FlightAware ADS-B
Tue 10:38:58 PM 41.6240 -62.8650 81° East 570 656 33,000  Level FlightAware ADS-B
Tue 10:39:39 PM 41.6400 -62.7330 81° East 570 656 33,000  Level FlightAware ADS-B
Tue 10:40:15 PM 41.6530 -62.6260 81° East 570 656 33,000  Level FlightAware ADS-B
Tue 10:40:51 PM 41.6650 -62.5200 81° East 570 656 33,000  Level FlightAware ADS-B
Tue 10:41:27 PM 41.6780 -62.4130 81° East 570 656 33,000  Level FlightAware ADS-B
Tue 10:42:03 PM 41.6900 -62.3060 81° East 570 656 33,000  Level FlightAware ADS-B
Tue 10:42:40 PM 41.7030 -62.1970 81° East 570 656 33,000  Level FlightAware ADS-B
Tue 10:43:16 PM 41.7160 -62.0900 81° East 570 656 33,000  Level FlightAware ADS-B
Tue 10:43:52 PM 41.7290 -61.9830 81° East 570 656 33,000  Level FlightAware ADS-B
Tue 10:44:28 PM 41.7410 -61.8760 81° East 570 656 33,000  Level FlightAware ADS-B
Tue 10:45:00 PM 41.7680 -61.6110 82° East 569 655 33,000  Level FlightAware ADS-B
Tue 10:45:40 PM 41.7800 -61.4930 82° East 569 655 33,000  Level FlightAware ADS-B
Tue 10:46:16 PM 41.7910 -61.3860 82° East 569 655 33,000  Level FlightAware ADS-B
Tue 10:46:52 PM 41.8020 -61.2790 82° East 569 655 33,000  Level FlightAware ADS-B
Tue 10:47:28 PM 41.8140 -61.1720 81° East 569 655 33,000  Level FlightAware ADS-B
Tue 10:48:05 PM 41.8250 -61.0620 82° East 569 655 33,000  Level FlightAware ADS-B
Tue 10:48:41 PM 41.8360 -60.9550 82° East 569 655 33,000  Level FlightAware ADS-B
Tue 10:49:18 PM 41.8480 -60.8440 82° East 569 655 33,000  Level FlightAware ADS-B
Tue 10:49:54 PM 41.8590 -60.7370 82° East 569 655 33,000  Level FlightAware ADS-B
Tue 10:50:30 PM 41.8700 -60.6300 82° East 569 655 33,000  Level FlightAware ADS-B
Tue 10:51:06 PM 41.8810 -60.5230 82° East 569 655 33,000  Level FlightAware ADS-B
Tue 10:51:42 PM 41.8930 -60.4160 81° East 569 655 33,000  Level FlightAware ADS-B
Tue 10:52:18 PM 41.9040 -60.3090 82° East 569 655 33,000  Level FlightAware ADS-B
Tue 10:52:54 PM 41.9150 -60.2020 82° East 569 655 33,000  Level FlightAware ADS-B
Tue 10:53:30 PM 41.9260 -60.0940 82° East 569 655 33,000  Level FlightAware ADS-B
Tue 10:54:07 PM 41.9380 -59.9840 82° East 569 655 33,000  Level FlightAware ADS-B
Tue 10:54:44 PM 41.9490 -59.8740 82° East 569 655 33,000  Level FlightAware ADS-B
Tue 10:55:14 PM 42.0000 -60.0000 79° East 537 618 33,000  Level New York Oceanic (ODAPS)
Tue 10:57:00 PM 42.0994 -59.4840 62° Northeast  Level Estimated
Tue 10:58:00 PM 42.1654 -59.3113 63° Northeast  Level Estimated
Tue 10:59:00 PM 42.2310 -59.1383 63° Northeast  Level Estimated
Tue 11:00:00 PM 42.2965 -58.9649 63° Northeast  Level Estimated
Tue 11:01:00 PM 42.2438 -58.2257 80° East 537 618 33,000  Level FlightAware Transoceanic
Tue 11:02:00 PM 42.2691 -58.0277 80° East 537 618 33,000  Level FlightAware Transoceanic
Tue 11:03:00 PM 42.2942 -57.8295 80° East 537 618 33,000  Level FlightAware Transoceanic
Tue 11:04:00 PM 42.3189 -57.6312 81° East 537 618 33,000  Level FlightAware Transoceanic
Tue 11:05:00 PM 42.3433 -57.4328 81° East 537 618 33,000  Level FlightAware Transoceanic
Tue 11:06:00 PM 42.3673 -57.2342 81° East 537 618 33,000  Level FlightAware Transoceanic
Tue 11:07:00 PM 42.3910 -57.0354 81° East 537 618 33,000  Level FlightAware Transoceanic
Tue 11:08:00 PM 42.4143 -56.8366 81° East 537 618 33,000  Level FlightAware Transoceanic
Tue 11:09:00 PM 42.4373 -56.6375 81° East 537 618 33,000  Level FlightAware Transoceanic
Tue 11:10:00 PM 42.4600 -56.4383 81° East 537 618 33,000  Level FlightAware Transoceanic
Tue 11:11:00 PM 42.4823 -56.2390 81° East 537 618 33,000  Level FlightAware Transoceanic
Tue 11:12:00 PM 42.5042 -56.0395 82° East 537 618 33,000  Level FlightAware Transoceanic
Tue 11:13:00 PM 42.5258 -55.8399 82° East 537 618 33,000  Level FlightAware Transoceanic
Tue 11:14:00 PM 42.5471 -55.6401 82° East 537 618 33,000  Level FlightAware Transoceanic
Tue 11:15:00 PM 42.5680 -55.4403 82° East 537 618 33,000  Level FlightAware Transoceanic
Tue 11:16:00 PM 42.5886 -55.2402 82° East 537 618 33,000  Level FlightAware Transoceanic
Tue 11:17:00 PM 42.6088 -55.0401 82° East 537 618 33,000  Level FlightAware Transoceanic
Tue 11:18:00 PM 42.6287 -54.8398 82° East 537 618 33,000  Level FlightAware Transoceanic
Tue 11:19:00 PM 42.6482 -54.6394 83° East 537 618 33,000  Level FlightAware Transoceanic
Tue 11:20:00 PM 42.6674 -54.4389 83° East 537 618 33,000  Level FlightAware Transoceanic
Tue 11:21:00 PM 42.6862 -54.2382 83° East 537 618 33,000  Level FlightAware Transoceanic
Tue 11:22:00 PM 42.7047 -54.0374 83° East 537 618 33,000  Level FlightAware Transoceanic
Tue 11:23:00 PM 42.7228 -53.8366 83° East 537 618 33,000  Level FlightAware Transoceanic
Tue 11:24:00 PM 42.7406 -53.6355 83° East 537 618 33,000  Level FlightAware Transoceanic
Tue 11:25:00 PM 42.7580 -53.4344 83° East 537 618 33,000  Level FlightAware Transoceanic
Tue 11:26:00 PM 42.7751 -53.2332 83° East 537 618 33,000  Level FlightAware Transoceanic
Tue 11:27:00 PM 42.7918 -53.0318 84° East 537 618 33,000  Level FlightAware Transoceanic
Tue 11:28:00 PM 42.8082 -52.8304 84° East 537 618 33,000  Level FlightAware Transoceanic
Tue 11:29:00 PM 42.8242 -52.6288 84° East 537 618 33,000  Level FlightAware Transoceanic
Tue 11:30:00 PM 42.8398 -52.4272 84° East 537 618 33,000  Level FlightAware Transoceanic
Tue 11:31:00 PM 42.8551 -52.2254 84° East 537 618 33,000  Level FlightAware Transoceanic
Tue 11:32:00 PM 42.8701 -52.0235 84° East 537 618 33,000  Level FlightAware Transoceanic
Tue 11:33:00 PM 42.8847 -51.8216 84° East 537 618 33,000  Level FlightAware Transoceanic
Tue 11:34:00 PM 42.8989 -51.6195 85° East 537 618 33,000  Level FlightAware Transoceanic
Tue 11:35:00 PM 42.9128 -51.4174 85° East 537 618 33,000  Level FlightAware Transoceanic
Tue 11:36:00 PM 42.9263 -51.2152 85° East 537 618 33,000  Level FlightAware Transoceanic
Tue 11:37:00 PM 42.9395 -51.0128 85° East 537 618 33,000  Level FlightAware Transoceanic
Tue 11:38:00 PM 42.9523 -50.8104 85° East 537 618 33,000  Level FlightAware Transoceanic
Tue 11:39:00 PM 42.9648 -50.6079 85° East 537 618 33,000  Level FlightAware Transoceanic
Tue 11:40:00 PM 42.9769 -50.4054 85° East 537 618 33,000  Level FlightAware Transoceanic
Tue 11:41:00 PM 42.9886 -50.2027 86° East 537 618 33,000  Level FlightAware Transoceanic
Tue 11:42:00 PM 43.0000 -50.0000 79° East 537 618 33,000  Level FlightAware Transoceanic
Tue 11:43:00 PM 43.0290 -49.7996 79° East 537 618 33,000  Level FlightAware Transoceanic
Tue 11:44:00 PM 43.0577 -49.5991 79° East 537 618 33,000  Level FlightAware Transoceanic
Tue 11:44:18 PM 43.0000 -50.0000 79° East 539 620 33,000  Level New York Oceanic (ODAPS)
Tue 11:45:00 PM 43.0860 -49.3984 79° East 537 618 33,000  Level FlightAware Transoceanic
Tue 11:46:00 PM 43.1140 -49.1975 79° East 537 618 33,000  Level FlightAware Transoceanic
Tue 11:47:00 PM 43.1416 -48.9964 79° East 537 618 33,000  Level FlightAware Transoceanic
Tue 11:48:00 PM 43.1689 -48.7951 80° East 537 618 33,000  Level FlightAware Transoceanic
Tue 11:49:00 PM 43.1958 -48.5937 80° East 537 618 33,000  Level FlightAware Transoceanic
Tue 11:50:00 PM 43.2224 -48.3920 80° East 539 620 33,000  Level FlightAware Transoceanic
Tue 11:51:00 PM 43.2486 -48.1902 80° East 539 620 33,000  Level FlightAware Transoceanic
Tue 11:52:00 PM 43.2744 -47.9883 80° East 539 620 33,000  Level FlightAware Transoceanic
Tue 11:53:00 PM 43.2999 -47.7861 80° East 539 620 33,000  Level FlightAware Transoceanic
Tue 11:54:00 PM 43.3251 -47.5838 80° East 539 620 33,000  Level FlightAware Transoceanic
Tue 11:55:00 PM 43.3499 -47.3813 81° East 539 620 33,000  Level FlightAware Transoceanic
Tue 11:56:00 PM 43.3743 -47.1787 81° East 539 620 33,000  Level FlightAware Transoceanic
Tue 11:57:00 PM 43.3984 -46.9759 81° East 539 620 33,000  Level FlightAware Transoceanic
Tue 11:58:00 PM 43.4221 -46.7729 81° East 539 620 33,000  Level FlightAware Transoceanic
Tue 11:59:00 PM 43.4454 -46.5698 81° East 539 620 33,000  Level FlightAware Transoceanic
Wed 12:00:00 AM 43.4684 -46.3665 81° East 539 620 33,000  Level FlightAware Transoceanic
Wed 12:01:00 AM 43.4911 -46.1631 81° East 539 620 33,000  Level FlightAware Transoceanic
Wed 12:02:00 AM 43.5133 -45.9595 81° East 539 620 33,000  Level FlightAware Transoceanic
Wed 12:03:00 AM 43.5352 -45.7557 82° East 539 620 33,000  Level FlightAware Transoceanic
Wed 12:04:00 AM 43.5568 -45.5518 82° East 539 620 33,000  Level FlightAware Transoceanic
Wed 12:05:00 AM 43.5780 -45.3478 82° East 539 620 33,000  Level FlightAware Transoceanic
Wed 12:06:00 AM 43.5988 -45.1437 82° East 539 620 33,000  Level FlightAware Transoceanic
Wed 12:07:00 AM 43.6193 -44.9393 82° East 539 620 33,000  Level FlightAware Transoceanic
Wed 12:08:00 AM 43.6394 -44.7349 82° East 539 620 33,000  Level FlightAware Transoceanic
Wed 12:09:00 AM 43.6591 -44.5303 82° East 539 620 33,000  Level FlightAware Transoceanic
Wed 12:10:00 AM 43.6785 -44.3256 83° East 539 620 33,000  Level FlightAware Transoceanic
Wed 12:11:00 AM 43.6974 -44.1208 83° East 539 620 33,000  Level FlightAware Transoceanic
Wed 12:12:00 AM 43.7161 -43.9158 83° East 539 620 33,000  Level FlightAware Transoceanic
Wed 12:13:00 AM 43.7343 -43.7107 83° East 539 620 33,000  Level FlightAware Transoceanic
Wed 12:14:00 AM 43.7523 -43.5055 83° East 539 620 33,000  Level FlightAware Transoceanic
Wed 12:15:00 AM 43.7698 -43.3001 83° East 539 620 33,000  Level FlightAware Transoceanic
Wed 12:16:00 AM 43.7869 -43.0946 83° East 539 620 33,000  Level FlightAware Transoceanic
Wed 12:17:00 AM 43.8037 -42.8890 84° East 539 620 33,000  Level FlightAware Transoceanic
Wed 12:18:00 AM 43.8202 -42.6834 84° East 539 620 33,000  Level FlightAware Transoceanic
Wed 12:19:00 AM 43.8362 -42.4776 84° East 539 620 33,000  Level FlightAware Transoceanic
Wed 12:20:00 AM 43.8519 -42.2716 84° East 539 620 33,000  Level FlightAware Transoceanic
Wed 12:21:00 AM 43.8672 -42.0656 84° East 539 620 33,000  Level FlightAware Transoceanic
Wed 12:22:00 AM 43.8822 -41.8595 84° East 539 620 33,000  Level FlightAware Transoceanic
Wed 12:23:00 AM 43.8968 -41.6532 84° East 539 620 33,000  Level FlightAware Transoceanic
Wed 12:24:00 AM 43.9110 -41.4469 85° East 539 620 33,000  Level FlightAware Transoceanic
Wed 12:25:00 AM 43.9248 -41.2405 85° East 539 620 33,000  Level FlightAware Transoceanic
Wed 12:26:00 AM 43.9383 -41.0340 85° East 539 620 33,000  Level FlightAware Transoceanic
Wed 12:27:00 AM 43.9514 -40.8273 85° East 539 620 33,000  Level FlightAware Transoceanic
Wed 12:28:00 AM 43.9641 -40.6206 85° East 539 620 33,000  Level FlightAware Transoceanic
Wed 12:29:00 AM 43.9764 -40.4138 85° East 539 620 33,000  Level FlightAware Transoceanic
Wed 12:30:00 AM 43.9884 -40.2070 85° East 539 620 33,000  Level FlightAware Transoceanic
Wed 12:31:00 AM 44.0000 -40.0000 94° East 539 620 33,000  Level FlightAware Transoceanic
Wed 12:32:00 AM 43.9882 -39.7887 95° East 539 620 33,000  Level FlightAware Transoceanic
Wed 12:33:00 AM 43.9759 -39.5775 95° East 539 620 33,000  Level FlightAware Transoceanic
Wed 12:33:00 AM 44.0000 -40.0000 94° East 548 631 33,000  Level ETMS Enhanced Traffic Management System
Wed 12:34:00 AM 43.9633 -39.3665 95° East 539 620 33,000  Level FlightAware Transoceanic
Wed 12:35:00 AM 43.9503 -39.1554 95° East 539 620 33,000  Level FlightAware Transoceanic
Wed 12:36:00 AM 43.9369 -38.9445 95° East 539 620 33,000  Level FlightAware Transoceanic
Wed 12:37:00 AM 43.9231 -38.7337 95° East 539 620 33,000  Level FlightAware Transoceanic
Wed 12:38:00 AM 43.9089 -38.5230 95° East 539 620 33,000  Level FlightAware Transoceanic
Wed 12:39:00 AM 43.9089 -38.5230 95° East 548 631 33,000  Level FlightAware Transoceanic
Wed 12:40:00 AM 43.8944 -38.3124 96° East 548 631 33,000  Level FlightAware Transoceanic
Wed 12:41:00 AM 43.8794 -38.1019 96° East 548 631 33,000  Level FlightAware Transoceanic
Wed 12:42:00 AM 43.8641 -37.8915 96° East 548 631 33,000  Level FlightAware Transoceanic
Wed 12:43:00 AM 43.8484 -37.6812 96° East 548 631 33,000  Level FlightAware Transoceanic
Wed 12:44:00 AM 43.8322 -37.4710 96° East 548 631 33,000  Level FlightAware Transoceanic
Wed 12:45:00 AM 43.8158 -37.2609 96° East 548 631 33,000  Level FlightAware Transoceanic
Wed 12:46:00 AM 43.7989 -37.0510 96° East 548 631 33,000  Level FlightAware Transoceanic
Wed 12:47:00 AM 43.7816 -36.8411 97° East 548 631 33,000  Level FlightAware Transoceanic
Wed 12:48:00 AM 43.7640 -36.6314 97° East 548 631 33,000  Level FlightAware Transoceanic
Wed 12:49:00 AM 43.7459 -36.4218 97° East 548 631 33,000  Level FlightAware Transoceanic
Wed 12:50:00 AM 43.7275 -36.2124 97° East 548 631 33,000  Level FlightAware Transoceanic
Wed 12:51:00 AM 43.7088 -36.0031 97° East 548 631 33,000  Level FlightAware Transoceanic
Wed 12:52:00 AM 43.6896 -35.7939 97° East 548 631 33,000  Level FlightAware Transoceanic
Wed 12:53:00 AM 43.6700 -35.5848 97° East 548 631 33,000  Level FlightAware Transoceanic
Wed 12:54:00 AM 43.6501 -35.3759 98° East 548 631 33,000  Level FlightAware Transoceanic
Wed 12:55:00 AM 43.6298 -35.1671 98° East 548 631 33,000  Level FlightAware Transoceanic
Wed 12:56:00 AM 43.6091 -34.9585 98° East 548 631 33,000  Level FlightAware Transoceanic
Wed 12:57:00 AM 43.5880 -34.7500 98° East 548 631 33,000  Level FlightAware Transoceanic
Wed 12:58:00 AM 43.5666 -34.5416 98° East 548 631 33,000  Level FlightAware Transoceanic
Wed 12:59:00 AM 43.5447 -34.3335 98° East 548 631 33,000  Level FlightAware Transoceanic
Wed 01:00:00 AM 43.5225 -34.1254 98° East 548 631 33,000  Level FlightAware Transoceanic
Wed 01:01:00 AM 43.4999 -33.9175 99° East 548 631 33,000  Level FlightAware Transoceanic
Wed 01:02:00 AM 43.4770 -33.7098 99° East 548 631 33,000  Level FlightAware Transoceanic
Wed 01:03:00 AM 43.4536 -33.5022 99° East 548 631 33,000  Level FlightAware Transoceanic
Wed 01:04:00 AM 43.4299 -33.2948 99° East 548 631 33,000  Level FlightAware Transoceanic
Wed 01:05:00 AM 43.4058 -33.0876 99° East 548 631 33,000  Level FlightAware Transoceanic
Wed 01:06:00 AM 43.3814 -32.8805 99° East 548 631 33,000  Level FlightAware Transoceanic
Wed 01:07:00 AM 43.3565 -32.6736 99° East 548 631 33,000  Level FlightAware Transoceanic
Wed 01:08:00 AM 43.3313 -32.4668 100° East 548 631 33,000  Level FlightAware Transoceanic
Wed 01:09:00 AM 43.3057 -32.2603 100° East 548 631 33,000  Level FlightAware Transoceanic
Wed 01:10:00 AM 43.2798 -32.0538 100° East 548 631 33,000  Level FlightAware Transoceanic
Wed 01:11:00 AM 43.2535 -31.8476 100° East 548 631 33,000  Level FlightAware Transoceanic
Wed 01:12:00 AM 43.2268 -31.6416 100° East 548 631 33,000  Level FlightAware Transoceanic
Wed 01:13:00 AM 43.1997 -31.4357 100° East 548 631 33,000  Level FlightAware Transoceanic
Wed 01:14:00 AM 43.1723 -31.2301 100° East 548 631 33,000  Level FlightAware Transoceanic
Wed 01:15:00 AM 43.1445 -31.0246 101° East 548 631 33,000  Level FlightAware Transoceanic
Wed 01:16:00 AM 43.1163 -30.8193 101° East 548 631 33,000  Level FlightAware Transoceanic
Wed 01:17:00 AM 43.0878 -30.6142 101° East 548 631 33,000  Level FlightAware Transoceanic
Wed 01:18:00 AM 43.0589 -30.4093 101° East 548 631 33,000  Level FlightAware Transoceanic
Wed 01:19:00 AM 43.0854 -30.2155 79° East  Level Estimated
Wed 01:19:00 AM 44.0000 -40.0000 94° East 548 631 33,000  Level ETMS Enhanced Traffic Management System
Wed 01:20:00 AM 43.1116 -30.0215 79° East  Level Estimated
Wed 01:21:00 AM 43.1375 -29.8274 80° East  Level Estimated
Wed 01:22:00 AM 43.1630 -29.6331 80° East  Level Estimated
Wed 01:23:00 AM 43.1882 -29.4386 80° East  Level Estimated
Wed 01:24:00 AM 43.2131 -29.2440 80° East  Level Estimated
Wed 01:25:00 AM 44.2228 -38.8530 74° East  Level Estimated
Wed 01:26:00 AM 44.2589 -38.6610 75° East  Level Estimated
Wed 01:27:00 AM 44.2946 -38.4687 75° East  Level Estimated
Wed 01:28:00 AM 44.3299 -38.2763 76° East  Level Estimated
Wed 01:29:00 AM 44.3650 -38.0836 76° East  Level Estimated
Wed 01:30:00 AM 44.3997 -37.8906 76° East  Level Estimated
Wed 01:31:00 AM 44.4341 -37.6975 76° East  Level Estimated
Wed 01:32:00 AM 44.4682 -37.5041 76° East  Level Estimated
Wed 01:33:00 AM 44.5019 -37.3105 76° East  Level Estimated
Wed 01:34:00 AM 44.5354 -37.1166 76° East  Level Estimated
Wed 01:35:00 AM 44.5684 -36.9226 76° East  Level Estimated
Wed 01:36:00 AM 44.6012 -36.7283 77° East  Level Estimated
Wed 01:37:00 AM 44.6336 -36.5338 77° East  Level Estimated
Wed 01:38:00 AM 44.6657 -36.3391 77° East  Level Estimated
Wed 01:39:00 AM 44.6975 -36.1442 77° East  Level Estimated
Wed 01:40:00 AM 44.7289 -35.9490 77° East  Level Estimated
Wed 01:41:00 AM 44.7601 -35.7537 77° East  Level Estimated
Wed 01:42:00 AM 44.7908 -35.5581 77° East  Level Estimated
Wed 01:43:00 AM 44.8213 -35.3624 78° East  Level Estimated
Wed 01:44:00 AM 44.8514 -35.1664 78° East  Level Estimated
Wed 01:45:00 AM 44.8811 -34.9702 78° East  Level Estimated
Wed 01:46:00 AM 44.9106 -34.7738 78° East  Level Estimated
Wed 01:47:00 AM 44.9397 -34.5773 78° East  Level Estimated
Wed 01:48:00 AM 44.9684 -34.3805 78° East  Level Estimated
Wed 01:49:00 AM 44.9968 -34.1835 78° East  Level Estimated
Wed 01:50:00 AM 45.0249 -33.9863 79° East  Level Estimated
Wed 01:51:00 AM 45.0527 -33.7890 79° East  Level Estimated
Wed 01:52:00 AM 45.0801 -33.5914 79° East  Level Estimated
Wed 01:53:00 AM 45.1071 -33.3937 79° East  Level Estimated
Wed 01:54:00 AM 45.1339 -33.1958 79° East  Level Estimated
Wed 01:55:00 AM 45.1602 -32.9977 79° East  Level Estimated
Wed 01:56:00 AM 45.1863 -32.7994 79° East  Level Estimated
Wed 01:57:00 AM 45.2120 -32.6009 80° East  Level Estimated
Wed 01:58:00 AM 45.2373 -32.4022 80° East  Level Estimated
Wed 01:59:00 AM 45.2623 -32.2034 80° East  Level Estimated
Wed 02:00:00 AM 45.2870 -32.0044 80° East  Level Estimated
Wed 02:01:00 AM 45.3113 -31.8052 80° East  Level Estimated
Wed 02:02:00 AM 45.3353 -31.6059 80° East  Level Estimated
Wed 02:03:00 AM 45.3589 -31.4064 80° East  Level Estimated
Wed 02:04:00 AM 45.3821 -31.2067 81° East  Level Estimated
Wed 02:05:00 AM 45.4051 -31.0069 81° East  Level Estimated
Wed 02:06:00 AM 45.4276 -30.8069 81° East  Level Estimated
Wed 02:07:00 AM 45.4498 -30.6067 81° East  Level Estimated
Wed 02:08:00 AM 45.4717 -30.4064 81° East  Level Estimated
Wed 02:08:00 AM 44.0000 -40.0000 94° East 548 631 33,000  Level ETMS Enhanced Traffic Management System
Wed 02:09:00 AM 45.4932 -30.2059 81° East  Level Estimated
Wed 02:10:00 AM 45.5144 -30.0053 81° East  Level Estimated
Wed 02:11:00 AM 45.5352 -29.8046 82° East  Level Estimated
Wed 02:12:00 AM 45.5557 -29.6036 82° East  Level Estimated
Wed 02:13:00 AM 45.5758 -29.4026 82° East  Level Estimated
Wed 02:14:00 AM 44.2228 -38.8530 74° East  Level Estimated
Wed 02:15:00 AM 44.2589 -38.6610 75° East  Level Estimated
Wed 02:16:00 AM 44.2946 -38.4687 75° East  Level Estimated
Wed 02:17:00 AM 44.3299 -38.2763 76° East  Level Estimated
Wed 02:18:00 AM 44.3650 -38.0836 76° East  Level Estimated
Wed 02:19:00 AM 44.3996 -37.8910 76° East  Level Estimated
Wed 02:20:00 AM 44.4340 -37.6981 76° East  Level Estimated
Wed 02:21:00 AM 44.4680 -37.5051 76° East  Level Estimated
Wed 02:22:00 AM 44.5017 -37.3118 76° East  Level Estimated
Wed 02:23:00 AM 44.5351 -37.1183 76° East  Level Estimated
Wed 02:24:00 AM 44.5681 -36.9246 76° East  Level Estimated
Wed 02:25:00 AM 44.6008 -36.7306 77° East  Level Estimated
Wed 02:26:00 AM 44.6332 -36.5365 77° East  Level Estimated
Wed 02:27:00 AM 44.6652 -36.3421 77° East  Level Estimated
Wed 02:28:00 AM 44.6970 -36.1475 77° East  Level Estimated
Wed 02:29:00 AM 44.7284 -35.9527 77° East  Level Estimated
Wed 02:30:00 AM 44.7594 -35.7577 77° East  Level Estimated
Wed 02:31:00 AM 44.7901 -35.5625 77° East  Level Estimated
Wed 02:32:00 AM 44.8205 -35.3671 78° East  Level Estimated
Wed 02:33:00 AM 44.8506 -35.1714 78° East  Level Estimated
Wed 02:34:00 AM 44.8803 -34.9756 78° East  Level Estimated
Wed 02:35:00 AM 44.9097 -34.7795 78° East  Level Estimated
Wed 02:36:00 AM 44.9388 -34.5833 78° East  Level Estimated
Wed 02:37:00 AM 44.9675 -34.3869 78° East  Level Estimated
Wed 02:38:00 AM 44.9959 -34.1902 78° East  Level Estimated
Wed 02:39:00 AM 45.0239 -33.9934 79° East  Level Estimated
Wed 02:40:00 AM 45.0516 -33.7964 79° East  Level Estimated
Wed 02:41:00 AM 45.0790 -33.5992 79° East  Level Estimated
Wed 02:42:00 AM 45.1060 -33.4018 79° East  Level Estimated
Wed 02:43:00 AM 45.1327 -33.2042 79° East  Level Estimated
Wed 02:44:00 AM 45.1591 -33.0065 79° East  Level Estimated
Wed 02:45:00 AM 45.1851 -32.8085 79° East  Level Estimated
Wed 02:46:00 AM 45.2108 -32.6104 80° East  Level Estimated
Wed 02:47:00 AM 45.2361 -32.4121 80° East  Level Estimated
Wed 02:48:00 AM 45.2611 -32.2136 80° East  Level Estimated
Wed 02:49:00 AM 45.2857 -32.0149 80° East  Level Estimated
Wed 02:49:21 AM 43.3260 -11.9130 80° East 519 597 34,000  Level FlightAware ADS-B
Wed 02:50:00 AM 45.3100 -31.8161 80° East  Level Estimated
Wed 02:50:14 AM 43.3090 -11.7540 98° East 520 598 34,000  Level FlightAware ADS-B
Wed 02:50:52 AM 43.2980 -11.6490 98° East 520 598 34,000  Level FlightAware ADS-B
Wed 02:51:28 AM 43.2880 -11.5480 98° East 520 598 34,000  Level FlightAware ADS-B
Wed 02:51:56 AM 43.2670 -11.3940 101° East 519 597 34,000  Level FlightAware ADS-B
Wed 02:52:36 AM 43.2510 -11.2650 100° East 518 596 34,000  Level FlightAware ADS-B
Wed 02:53:16 AM 43.2380 -11.1380 98° East 520 598 34,000  Level FlightAware ADS-B
Wed 02:54:00 AM 43.2290 -11.0160 96° East 520 598 34,000  Level FlightAware ADS-B
Wed 02:54:28 AM 43.2200 -10.9090 97° East 587 676 34,000  Level FlightAware ADS-B
Wed 02:55:11 AM 43.2080 -10.7660 97° East 523 602 34,000  Level FlightAware ADS-B
Wed 02:55:41 AM 43.1990 -10.6620 97° East 523 602 34,000  Level FlightAware ADS-B
Wed 02:56:16 AM 43.1870 -10.5440 98° East 524 603 34,000  Level FlightAware ADS-B
Wed 02:56:51 AM 43.1750 -10.4290 98° East 522 601 34,000  Level FlightAware ADS-B
Wed 02:57:31 AM 43.1610 -10.3010 98° East 521 600 34,000  Level FlightAware ADS-B
Wed 02:58:02 AM 43.1490 -10.1970 99° East 521 600 34,000  Level FlightAware ADS-B
Wed 02:58:37 AM 43.1350 -10.0850 100° East 521 600 34,000  Level FlightAware ADS-B
Wed 02:59:12 AM 43.1200 -9.9690 100° East 521 600 34,000  Level FlightAware ADS-B
Wed 02:59:47 AM 43.1060 -9.8600 100° East 521 600 34,000  Level FlightAware ADS-B
Wed 03:00:25 AM 43.0920 -9.7470 100° East 522 601 34,000  Level FlightAware ADS-B
Wed 03:00:59 AM 43.0760 -9.6300 101° East 521 600 34,000  Level FlightAware ADS-B
Wed 03:01:41 AM 43.0560 -9.4890 101° East 518 596 34,000  Level FlightAware ADS-B
Wed 03:02:16 AM 43.0410 -9.3770 100° East 517 595 34,000  Level FlightAware ADS-B
Wed 03:02:56 AM 43.0240 -9.2490 100° East 515 593 34,000  Level FlightAware ADS-B
Wed 03:03:31 AM 43.0080 -9.1350 101° East 514 592 34,000  Level FlightAware ADS-B
Wed 03:04:06 AM 42.9920 -9.0230 101° East 513 590 34,000  Level FlightAware ADS-B
Wed 03:04:41 AM 42.9770 -8.9140 101° East 513 590 34,000  Level FlightAware ADS-B
Wed 03:05:16 AM 42.9610 -8.8000 101° East 515 593 34,000  Level FlightAware ADS-B
Wed 03:05:51 AM 42.9460 -8.6890 100° East 516 594 34,000  Level FlightAware ADS-B
Wed 03:06:26 AM 42.9310 -8.5780 100° East 519 597 34,000  Level FlightAware ADS-B
Wed 03:07:01 AM 42.9200 -8.4660 98° East 523 602 34,000  Level FlightAware ADS-B
Wed 03:07:36 AM 42.9130 -8.3480 95° East 527 606 34,000  Level FlightAware ADS-B
Wed 03:08:12 AM 42.9080 -8.2420 94° East 529 609 34,000 254 Level FlightAware ADS-B
Wed 03:08:47 AM 42.9020 -8.1140 94° East 523 602 34,300 423 Climbing FlightAware ADS-B
Wed 03:09:23 AM 42.8960 -7.9990 94° East 523 602 34,500 514 Climbing FlightAware ADS-B
Wed 03:09:57 AM 42.8890 -7.8810 95° East 530 610 34,900 522 Climbing FlightAware ADS-B
Wed 03:10:32 AM 42.8810 -7.7670 95° East 530 610 35,100 462 Climbing FlightAware ADS-B
Wed 03:11:02 AM 42.8750 -7.6670 95° East 526 605 35,400 455 Climbing FlightAware ADS-B
Wed 03:11:38 AM 42.8680 -7.5540 95° East 524 603 35,600 400 Climbing FlightAware ADS-B
Wed 03:12:17 AM 42.8590 -7.4170 95° East 522 601 35,900 286 Climbing FlightAware ADS-B
Wed 03:13:02 AM 42.8500 -7.2740 95° East 522 601 36,000 65 Climbing FlightAware ADS-B
Wed 03:13:49 AM 42.8410 -7.1340 95° East 520 598 36,000  Level FlightAware ADS-B
Wed 03:14:22 AM 42.8330 -7.0180 95° East 521 600 36,000  Level FlightAware ADS-B
Wed 03:14:57 AM 42.8250 -6.9010 95° East 521 600 36,000  Level FlightAware ADS-B
Wed 03:15:32 AM 42.8170 -6.7840 95° East 521 600 36,000  Level FlightAware ADS-B
Wed 03:16:07 AM 42.8090 -6.6670 95° East 521 600 36,000  Level FlightAware ADS-B
Wed 03:16:42 AM 42.8010 -6.5560 96° East 522 601 36,000  Level FlightAware ADS-B
Wed 03:17:17 AM 42.7930 -6.4390 95° East 521 600 36,000  Level FlightAware ADS-B
Wed 03:17:52 AM 42.7850 -6.3320 96° East 522 601 36,000  Level FlightAware ADS-B
Wed 03:18:37 AM 42.7740 -6.1880 96° East 523 602 36,000  Level FlightAware ADS-B
Wed 03:19:12 AM 42.7650 -6.0680 96° East 523 602 36,000  Level FlightAware ADS-B
Wed 03:19:42 AM 42.7570 -5.9690 96° East 521 600 36,000  Level FlightAware ADS-B
Wed 03:20:17 AM 42.7480 -5.8520 96° East 520 598 36,000  Level FlightAware ADS-B
Wed 03:20:57 AM 42.7370 -5.7220 97° East 518 596 36,000  Level FlightAware ADS-B
Wed 03:21:32 AM 42.7280 -5.6090 96° East 516 594 36,000  Level FlightAware ADS-B
Wed 03:22:02 AM 42.7200 -5.5140 97° East 516 594 36,000  Level FlightAware ADS-B
Wed 03:22:37 AM 42.7110 -5.4000 96° East 516 594 36,000  Level FlightAware ADS-B
Wed 03:23:17 AM 42.7000 -5.2710 97° East 516 594 36,000  Level FlightAware ADS-B
Wed 03:23:52 AM 42.6920 -5.1720 96° East 515 593 36,000  Level FlightAware ADS-B
Wed 03:24:32 AM 42.6800 -5.0330 97° East 516 594 36,000  Level FlightAware ADS-B
Wed 03:25:12 AM 42.6680 -4.9020 97° East 517 595 36,000  Level FlightAware ADS-B
Wed 03:25:52 AM 42.6570 -4.7730 97° East 520 598 36,000  Level FlightAware ADS-B
Wed 03:26:27 AM 42.6460 -4.6600 98° East 521 600 36,000  Level FlightAware ADS-B
Wed 03:26:58 AM 42.6380 -4.5660 97° East 524 603 36,000  Level FlightAware ADS-B
Wed 03:27:37 AM 42.6250 -4.4320 97° East 525 604 36,000  Level FlightAware ADS-B
Wed 03:28:12 AM 42.6140 -4.3160 97° East 525 604 36,000  Level FlightAware ADS-B
Wed 03:28:47 AM 42.6040 -4.2090 97° East 523 602 36,000  Level FlightAware ADS-B
Wed 03:29:22 AM 42.5920 -4.0890 98° East 522 601 36,000  Level FlightAware ADS-B
Wed 03:29:57 AM 42.5810 -3.9780 98° East 523 602 36,000  Level FlightAware ADS-B
Wed 03:30:29 AM 42.5720 -3.8860 98° East 525 604 36,000  Level FlightAware ADS-B
Wed 03:31:07 AM 42.5580 -3.7500 98° East 526 605 36,000  Level FlightAware ADS-B
Wed 03:31:42 AM 42.5460 -3.6390 98° East 525 604 36,000  Level FlightAware ADS-B
Wed 03:32:17 AM 42.5330 -3.5210 98° East 524 603 36,000  Level FlightAware ADS-B
Wed 03:32:52 AM 42.5210 -3.4090 98° East 523 602 36,000  Level FlightAware ADS-B
Wed 03:33:27 AM 42.5090 -3.2920 98° East 521 600 36,000  Level FlightAware ADS-B
Wed 03:34:12 AM 42.4940 -3.1480 98° East 518 596 36,000  Level FlightAware ADS-B
Wed 03:34:52 AM 42.4810 -3.0330 99° East 515 593 36,000  Level FlightAware ADS-B
Wed 03:35:33 AM 42.4590 -2.8930 102° East 513 590 36,000  Level FlightAware ADS-B
Wed 03:36:12 AM 42.4340 -2.7710 105° East 514 592 36,000  Level FlightAware ADS-B
Wed 03:36:42 AM 42.4170 -2.6840 105° East 513 590 36,000  Level FlightAware ADS-B
Wed 03:37:22 AM 42.3930 -2.5680 106° East 513 590 36,000  Level FlightAware ADS-B
Wed 03:37:52 AM 42.3720 -2.4710 106° East 513 590 36,000  Level FlightAware ADS-B
Wed 03:38:31 AM 42.3450 -2.3430 106° East 513 590 36,000  Level FlightAware ADS-B
Wed 03:39:12 AM 42.3180 -2.2150 106° East 510 587 36,000  Level FlightAware ADS-B
Wed 03:39:50 AM 42.2920 -2.0960 106° East 510 587 36,000  Level FlightAware ADS-B
Wed 03:40:21 AM 42.2730 -2.0050 106° East 510 587 36,000  Level FlightAware ADS-B
Wed 03:40:58 AM 42.2490 -1.8920 106° East 509 586 36,000  Level FlightAware ADS-B
Wed 03:41:30 AM 42.2270 -1.7910 106° East 510 587 36,000  Level FlightAware ADS-B
Wed 03:42:09 AM 42.2020 -1.6730 106° East 511 588 36,000  Level FlightAware ADS-B
Wed 03:42:42 AM 42.1800 -1.5710 106° East 511 588 36,000  Level FlightAware ADS-B
Wed 03:43:17 AM 42.1570 -1.4670 107° East 510 587 36,000  Level FlightAware ADS-B
Wed 03:43:54 AM 42.1320 -1.3530 106° East 510 587 36,000  Level FlightAware ADS-B
Wed 03:44:30 AM 42.1070 -1.2420 107° East 510 587 36,000  Level FlightAware ADS-B
Wed 03:45:00 AM 42.0870 -1.1520 107° East 510 587 36,000  Level FlightAware ADS-B
Wed 03:45:37 AM 42.0620 -1.0400 107° East 509 586 36,000  Level FlightAware ADS-B
Wed 03:46:14 AM 42.0360 -0.9280 107° East 509 586 36,000  Level FlightAware ADS-B
Wed 03:46:47 AM 42.0140 -0.8290 107° East 509 586 36,000  Level FlightAware ADS-B
Wed 03:47:25 AM 41.9870 -0.7120 107° East 507 583 36,000  Level FlightAware ADS-B
Wed 03:47:56 AM 41.9650 -0.6180 107° East 507 583 36,000  Level FlightAware ADS-B
Wed 03:48:33 AM 41.9390 -0.5080 108° East 507 583 36,000  Level FlightAware ADS-B
Wed 03:49:05 AM 41.9170 -0.4110 107° East 508 585 36,000  Level FlightAware ADS-B
Wed 03:49:44 AM 41.8900 -0.2950 107° East 508 585 36,000  Level FlightAware ADS-B
Wed 03:50:17 AM 41.8670 -0.1970 107° East 507 583 36,000  Level FlightAware ADS-B
Wed 03:50:53 AM 41.8410 -0.0870 108° East 507 583 36,000  Level FlightAware ADS-B
Wed 03:51:29 AM 41.8150 0.0190 108° East 507 583 36,000  Level FlightAware ADS-B
Wed 03:52:01 AM 41.7920 0.1150 108° East 508 585 36,000  Level FlightAware ADS-B
Wed 03:52:36 AM 41.7670 0.2190 108° East 507 583 36,000  Level FlightAware ADS-B
Wed 03:53:14 AM 41.7400 0.3330 108° East 506 582 36,000  Level FlightAware ADS-B
Wed 03:53:47 AM 41.7160 0.4340 108° East 505 581 36,000  Level FlightAware ADS-B
Wed 03:54:22 AM 41.6920 0.5350 108° East 504 580 36,000  Level FlightAware ADS-B
Wed 03:54:59 AM 41.6650 0.6440 108° East 505 581 36,000  Level FlightAware ADS-B
Wed 03:55:35 AM 41.6370 0.7510 109° East 504 580 36,000  Level FlightAware ADS-B
Wed 03:56:07 AM 41.6130 0.8430 109° East 504 580 36,000  Level FlightAware ADS-B
Wed 03:56:42 AM 41.5850 0.9460 110° East 504 580 36,000  Level FlightAware ADS-B
Wed 03:57:17 AM 41.5580 1.0510 109° East 504 580 36,000  Level FlightAware ADS-B
Wed 03:57:54 AM 41.5330 1.1590 107° East 503 579 36,000  Level FlightAware ADS-B
Wed 03:58:28 AM 41.5100 1.2610 107° East 504 580 36,000  Level FlightAware ADS-B
Wed 03:59:01 AM 41.4880 1.3600 106° East 503 579 36,000  Level FlightAware ADS-B
Wed 03:59:38 AM 41.4630 1.4690 107° East 504 580 36,000  Level FlightAware ADS-B
Wed 04:00:15 AM 41.4370 1.5790 107° East 505 581 36,000  Level FlightAware ADS-B
Wed 04:00:47 AM 41.4130 1.6730 109° East 505 581 36,000  Level FlightAware ADS-B
Wed 04:01:25 AM 41.3840 1.7840 109° East 505 581 36,000  Level FlightAware ADS-B
Wed 04:01:57 AM 41.3590 1.8800 109° East 505 581 36,000  Level FlightAware ADS-B
Wed 04:02:33 AM 41.3310 1.9870 109° East 506 582 36,000  Level FlightAware ADS-B
Wed 04:03:08 AM 41.3110 2.0890 105° East 505 581 36,000  Level FlightAware ADS-B
Wed 04:03:41 AM 41.2940 2.1880 103° East 505 581 36,000  Level FlightAware ADS-B
Wed 04:04:17 AM 41.2760 2.3000 102° East 505 581 36,000  Level FlightAware ADS-B
Wed 04:04:54 AM 41.2570 2.4130 103° East 504 580 36,000  Level FlightAware ADS-B
Wed 04:05:30 AM 41.2400 2.5190 102° East 505 581 36,000  Level FlightAware ADS-B
Wed 04:06:01 AM 41.2240 2.6130 103° East 505 581 36,000  Level FlightAware ADS-B
Wed 04:06:37 AM 41.2050 2.7230 103° East 505 581 36,000  Level FlightAware ADS-B
Wed 04:07:07 AM 41.1890 2.8130 103° East 505 581 36,000  Level FlightAware ADS-B
Wed 04:07:47 AM 41.1690 2.9320 103° East 506 582 36,000  Level FlightAware ADS-B
Wed 04:08:21 AM 41.1520 3.0330 103° East 506 582 36,000  Level FlightAware ADS-B
Wed 04:08:58 AM 41.1330 3.1410 103° East 506 582 36,000  Level FlightAware ADS-B
Wed 04:09:38 AM 41.1130 3.2530 103° East 506 582 36,000  Level FlightAware ADS-B
Wed 04:10:16 AM 41.0920 3.3780 103° East 508 585 36,000  Level FlightAware ADS-B
Wed 04:10:46 AM 41.0760 3.4670 103° East 507 583 36,000  Level FlightAware ADS-B
Wed 04:11:31 AM 41.0520 3.6040 103° East 506 582 36,000  Level FlightAware ADS-B
Wed 04:12:52 AM 41.0080 3.8500 103° East 506 582 36,000  Level FlightAware ADS-B
Wed 04:13:28 AM 40.9880 3.9620 103° East 507 583 36,000  Level FlightAware ADS-B
Wed 04:14:00 AM 40.9710 4.0560 103° East 507 583 36,000  Level FlightAware ADS-B
Wed 04:14:35 AM 40.9520 4.1600 104° East 506 582 36,000  Level FlightAware ADS-B
Wed 04:15:15 AM 40.9300 4.2840 103° East 506 582 36,000  Level FlightAware ADS-B
Wed 04:15:45 AM 40.9140 4.3730 103° East 505 581 36,000  Level FlightAware ADS-B
Wed 04:16:20 AM 40.8950 4.4770 104° East 502 578 36,000  Level FlightAware ADS-B
Wed 04:17:13 AM 40.8750 4.6200 100° East 500 575 36,000  Level FlightAware ADS-B
Wed 04:17:49 AM 40.8640 4.7130 99° East 500 575 36,000  Level FlightAware ADS-B
Wed 04:18:25 AM 40.8530 4.8050 99° East 500 575 36,000  Level FlightAware ADS-B
Wed 04:19:01 AM 40.8420 4.8980 99° East 500 575 36,000  Level FlightAware ADS-B
Wed 04:19:37 AM 40.8310 4.9900 99° East 500 575 36,000  Level FlightAware ADS-B
Wed 04:20:13 AM 40.8200 5.0830 99° East 500 575 36,000  Level FlightAware ADS-B
Wed 04:20:49 AM 40.8090 5.1750 99° East 500 575 36,000  Level FlightAware ADS-B
Wed 04:21:25 AM 40.7970 5.2670 100° East 500 575 36,000  Level FlightAware ADS-B
Wed 04:22:01 AM 40.7860 5.3600 99° East 500 575 36,000  Level FlightAware ADS-B
Wed 04:22:39 AM 40.7830 5.6240 91° East 36,000  Level FlightAware ADS-B
Wed 04:23:09 AM 40.7750 5.7060 97° East 501 577 36,000  Level FlightAware ADS-B
Wed 04:23:45 AM 40.7640 5.8220 97° East 501 577 36,000  Level FlightAware ADS-B
Wed 04:24:24 AM 40.7520 5.9460 97° East 501 577 36,000  Level FlightAware ADS-B
Wed 04:25:00 AM 40.7420 6.0540 97° East 501 577 36,000  Level FlightAware ADS-B
Wed 04:25:34 AM 40.7320 6.1580 97° East 501 577 36,000  Level FlightAware ADS-B
Wed 04:26:09 AM 40.7210 6.2650 98° East 501 577 36,000  Level FlightAware ADS-B
Wed 04:26:45 AM 40.7100 6.3700 98° East 501 577 36,000  Level FlightAware ADS-B
Wed 04:27:20 AM 40.7000 6.4760 97° East 500 575 36,000  Level FlightAware ADS-B
Wed 04:27:54 AM 40.6890 6.5810 98° East 500 575 36,000  Level FlightAware ADS-B
Wed 04:28:30 AM 40.6780 6.6860 98° East 500 575 36,000  Level FlightAware ADS-B
Wed 04:29:04 AM 40.6670 6.7920 98° East 500 575 36,000  Level FlightAware ADS-B
Wed 04:29:40 AM 40.6560 6.8980 98° East 499 574 36,000  Level FlightAware ADS-B
Wed 04:30:14 AM 40.6460 7.0020 97° East 498 573 36,000  Level FlightAware ADS-B
Wed 04:30:50 AM 40.6340 7.1070 99° East 498 573 36,000  Level FlightAware ADS-B
Wed 04:31:24 AM 40.6230 7.2130 98° East 497 572 36,000  Level FlightAware ADS-B
Wed 04:32:00 AM 40.6120 7.3180 98° East 498 573 36,000  Level FlightAware ADS-B
Wed 04:32:39 AM 40.6110 7.4390 91° East 498 573 36,000  Level FlightAware ADS-B
Wed 04:33:15 AM 40.6200 7.5450 84° East 497 572 36,000  Level FlightAware ADS-B
Wed 04:33:48 AM 40.6290 7.6450 83° East 498 573 36,000  Level FlightAware ADS-B
Wed 04:34:25 AM 40.6400 7.7590 83° East 498 573 36,000  Level FlightAware ADS-B
Wed 04:35:00 AM 40.6490 7.8630 83° East 500 575 36,000  Level FlightAware ADS-B
Wed 04:35:36 AM 40.6590 7.9710 83° East 501 577 36,000  Level FlightAware ADS-B
Wed 04:36:15 AM 40.6700 8.0910 83° East 502 578 36,000  Level FlightAware ADS-B
Wed 04:36:45 AM 40.6780 8.1830 83° East 502 578 36,000  Level FlightAware ADS-B
Wed 04:37:21 AM 40.6870 8.2890 84° East 502 578 36,000  Level FlightAware ADS-B
Wed 04:37:55 AM 40.6960 8.3960 84° East 502 578 36,000  Level FlightAware ADS-B
Wed 04:38:30 AM 40.7050 8.5010 84° East 502 578 36,000  Level FlightAware ADS-B
Wed 04:39:05 AM 40.7140 8.6090 84° East 503 579 36,000  Level FlightAware ADS-B
Wed 04:39:45 AM 40.7230 8.7300 84° East 501 577 36,000  Level FlightAware ADS-B
Wed 04:40:15 AM 40.7180 8.8210 94° East 494 568 36,000 185 Level FlightAware ADS-B
Wed 04:40:50 AM 40.6980 8.9220 105° East 492 566 36,200 343 Climbing FlightAware ADS-B
Wed 04:41:25 AM 40.6760 9.0230 106° East 488 562 36,400 400 Climbing FlightAware ADS-B
Wed 04:42:05 AM 40.6510 9.1380 106° East 490 564 36,700 429 Climbing FlightAware ADS-B
Wed 04:42:35 AM 40.6310 9.2250 107° East 494 568 36,900 182 Climbing FlightAware ADS-B
Wed 04:43:11 AM 40.6080 9.3280 106° East 495 570 36,900 80 Level FlightAware ADS-B
Wed 04:43:50 AM 40.5830 9.4410 106° East 493 567 37,000 87 Climbing FlightAware ADS-B
Wed 04:44:20 AM 40.5630 9.5300 106° East 492 566 37,000  Level FlightAware ADS-B
Wed 04:44:55 AM 40.5400 9.6300 107° East 493 567 37,000  Level FlightAware ADS-B
Wed 04:45:31 AM 40.5180 9.7310 106° East 493 567 37,000  Level FlightAware ADS-B
Wed 04:46:10 AM 40.4920 9.8450 107° East 495 570 37,000  Level FlightAware ADS-B
Wed 04:46:40 AM 40.4710 9.9330 107° East 498 573 37,000  Level FlightAware ADS-B
Wed 04:47:15 AM 40.4480 10.0330 107° East 498 573 37,000  Level FlightAware ADS-B
Wed 04:47:51 AM 40.4250 10.1360 106° East 498 573 37,000  Level FlightAware ADS-B
Wed 04:48:30 AM 40.3980 10.2510 107° East 497 572 37,000  Level FlightAware ADS-B
Wed 04:49:01 AM 40.3780 10.3380 107° East 496 571 37,000  Level FlightAware ADS-B
Wed 04:49:35 AM 40.3550 10.4360 107° East 495 570 37,000  Level FlightAware ADS-B
Wed 04:50:11 AM 40.3300 10.5380 108° East 493 567 37,000  Level FlightAware ADS-B
Wed 04:50:46 AM 40.3060 10.6400 107° East 491 565 37,000  Level FlightAware ADS-B
Wed 04:51:22 AM 40.2820 10.7400 107° East 490 564 37,000  Level FlightAware ADS-B
Wed 04:51:56 AM 40.2590 10.8380 107° East 490 564 37,000  Level FlightAware ADS-B
Wed 04:52:32 AM 40.2350 10.9370 108° East 488 562 37,000  Level FlightAware ADS-B
Wed 04:53:06 AM 40.2110 11.0350 108° East 488 562 37,000  Level FlightAware ADS-B
Wed 04:53:41 AM 40.1870 11.1330 108° East 487 560 37,000  Level FlightAware ADS-B
Wed 04:54:16 AM 40.1630 11.2300 108° East 487 560 37,000  Level FlightAware ADS-B
Wed 04:54:51 AM 40.1390 11.3280 108° East 486 559 37,000  Level FlightAware ADS-B
Wed 04:55:26 AM 40.1150 11.4250 108° East 484 557 37,000  Level FlightAware ADS-B
Wed 04:56:06 AM 40.0870 11.5390 108° East 482 555 37,000  Level FlightAware ADS-B
Wed 04:56:46 AM 40.0590 11.6460 109° East 481 554 37,000  Level FlightAware ADS-B
Wed 04:57:21 AM 40.0340 11.7480 108° East 481 554 37,000  Level FlightAware ADS-B
Wed 04:57:53 AM 40.0120 11.8310 109° East 481 554 37,000  Level FlightAware ADS-B
Wed 04:58:31 AM 39.9850 11.9400 108° East 481 554 37,000  Level FlightAware ADS-B
Wed 04:59:07 AM 39.9600 12.0360 109° East 481 554 37,000  Level FlightAware ADS-B
Wed 04:59:37 AM 39.9380 12.1200 109° East 480 552 37,000  Level FlightAware ADS-B
Wed 05:00:15 AM 39.9110 12.2250 109° East 480 552 37,000  Level FlightAware ADS-B
Wed 05:00:51 AM 39.8860 12.3210 109° East 479 551 37,000  Level FlightAware ADS-B
Wed 05:01:24 AM 39.8620 12.4120 109° East 478 550 37,000  Level FlightAware ADS-B
Wed 05:02:12 AM 39.8280 12.5390 109° East 474 545 37,000  Level FlightAware ADS-B
Wed 05:02:47 AM 39.8030 12.6340 109° East 472 543 37,000  Level FlightAware ADS-B
Wed 05:03:22 AM 39.7780 12.7270 109° East 470 541 37,000  Level FlightAware ADS-B
Wed 05:03:57 AM 39.7520 12.8220 110° East 469 540 37,000  Level FlightAware ADS-B
Wed 05:04:40 AM 39.7200 12.9390 110° East 469 540 37,000  Level FlightAware ADS-B
Wed 05:05:16 AM 39.6940 13.0350 109° East 468 539 37,000  Level FlightAware ADS-B
Wed 05:05:52 AM 39.6670 13.1320 110° East 467 537 37,000  Level FlightAware ADS-B
Wed 05:06:24 AM 39.6440 13.2160 110° East 467 537 37,000  Level FlightAware ADS-B
Wed 05:07:02 AM 39.6200 13.3150 107° East 467 537 37,000  Level FlightAware ADS-B
Wed 05:07:38 AM 39.6030 13.4170 102° East 468 539 37,000  Level FlightAware ADS-B
Wed 05:08:10 AM 39.5920 13.4980 100° East 468 539 37,000  Level FlightAware ADS-B
Wed 05:08:46 AM 39.5770 13.6030 100° East 468 539 37,000  Level FlightAware ADS-B
Wed 05:09:22 AM 39.5640 13.7010 100° East 468 539 37,000  Level FlightAware ADS-B
Wed 05:09:54 AM 39.5510 13.7900 101° East 468 539 37,000  Level FlightAware ADS-B
Wed 05:10:30 AM 39.5370 13.8900 100° East 468 539 37,000  Level FlightAware ADS-B
Wed 05:11:02 AM 39.5250 13.9790 100° East 468 539 37,000  Level FlightAware ADS-B
Wed 05:11:40 AM 39.5100 14.0830 101° East 469 540 37,000  Level FlightAware ADS-B
Wed 05:12:16 AM 39.4960 14.1780 101° East 469 540 37,000  Level FlightAware ADS-B
Wed 05:12:52 AM 39.4810 14.2820 101° East 470 541 37,000  Level FlightAware ADS-B
Wed 05:13:31 AM 39.4650 14.3880 101° East 470 541 37,000  Level FlightAware ADS-B
Wed 05:14:07 AM 39.4500 14.4880 101° East 471 542 37,000  Level FlightAware ADS-B
Wed 05:14:51 AM 39.4310 14.6110 101° East 471 542 37,000  Level FlightAware ADS-B
Wed 05:15:23 AM 39.4180 14.6980 101° East 471 542 37,000  Level FlightAware ADS-B
Wed 05:15:59 AM 39.4020 14.8000 101° East 471 542 37,000  Level FlightAware ADS-B
Wed 05:16:36 AM 39.3870 14.8970 101° East 471 542 37,000  Level FlightAware ADS-B
Wed 05:17:12 AM 39.3710 14.9980 102° East 471 542 37,000  Level FlightAware ADS-B
Wed 05:17:47 AM 39.3560 15.0950 101° East 471 542 37,000  Level FlightAware ADS-B
Wed 05:18:19 AM 39.3420 15.1820 102° East 472 543 37,000  Level FlightAware ADS-B
Wed 05:18:55 AM 39.3260 15.2820 102° East 473 544 37,000  Level FlightAware ADS-B
Wed 05:19:31 AM 39.3090 15.3850 102° East 474 545 37,000  Level FlightAware ADS-B
Wed 05:20:07 AM 39.2930 15.4820 102° East 475 547 37,000  Level FlightAware ADS-B
Wed 05:20:39 AM 39.2780 15.5700 102° East 475 547 37,000  Level FlightAware ADS-B
Wed 05:21:18 AM 39.2610 15.6780 101° East 476 548 37,000  Level FlightAware ADS-B
Wed 05:21:47 AM 39.2470 15.7580 103° East 476 548 37,000  Level FlightAware ADS-B
Wed 05:22:25 AM 39.2300 15.8630 102° East 477 549 37,000  Level FlightAware ADS-B
Wed 05:23:01 AM 39.2130 15.9630 102° East 477 549 37,000  Level FlightAware ADS-B
Wed 05:23:37 AM 39.1970 16.0580 102° East 477 549 37,000  Level FlightAware ADS-B
Wed 05:24:11 AM 39.1790 16.1630 102° East 477 549 37,000  Level FlightAware ADS-B
Wed 05:24:47 AM 39.1590 16.2590 105° East 477 549 37,000  Level FlightAware ADS-B
Wed 05:25:23 AM 39.1380 16.3590 105° East 478 550 37,000  Level FlightAware ADS-B
Wed 05:25:55 AM 39.1190 16.4440 106° East 479 551 37,000  Level FlightAware ADS-B
Wed 05:26:31 AM 39.0970 16.5410 106° East 479 551 37,000  Level FlightAware ADS-B
Wed 05:27:07 AM 39.0740 16.6420 106° East 480 552 37,000  Level FlightAware ADS-B
Wed 05:27:43 AM 39.0520 16.7420 106° East 480 552 37,000  Level FlightAware ADS-B
Wed 05:28:15 AM 39.0320 16.8300 106° East 480 552 37,000  Level FlightAware ADS-B
Wed 05:28:51 AM 39.0100 16.9300 106° East 481 554 37,000  Level FlightAware ADS-B
Wed 05:29:27 AM 38.9880 17.0290 106° East 481 554 37,000  Level FlightAware ADS-B
Wed 05:30:02 AM 38.9660 17.1230 107° East 481 554 37,000  Level FlightAware ADS-B
Wed 05:30:34 AM 38.9460 17.2110 106° East 481 554 37,000  Level FlightAware ADS-B
Wed 05:31:11 AM 38.9220 17.3140 107° East 481 554 37,000  Level FlightAware ADS-B
Wed 05:31:47 AM 38.9000 17.4110 106° East 482 555 37,000  Level FlightAware ADS-B
Wed 05:32:17 AM 38.8810 17.4930 107° East 483 556 37,000  Level FlightAware ADS-B
Wed 05:32:55 AM 38.8570 17.5990 106° East 483 556 37,000  Level FlightAware ADS-B
Wed 05:33:31 AM 38.8340 17.6970 107° East 484 557 37,000  Level FlightAware ADS-B
Wed 05:34:07 AM 38.8110 17.7970 106° East 485 558 37,000  Level FlightAware ADS-B
Wed 05:34:43 AM 38.7880 17.8950 107° East 485 558 37,000  Level FlightAware ADS-B
Wed 05:35:15 AM 38.7680 17.9840 106° East 486 559 37,000  Level FlightAware ADS-B
Wed 05:35:53 AM 38.7430 18.0890 107° East 487 560 37,000  Level FlightAware ADS-B
Wed 05:36:23 AM 38.7240 18.1710 107° East 487 560 37,000  Level FlightAware ADS-B
Wed 05:36:59 AM 38.7000 18.2710 107° East 488 562 37,000  Level FlightAware ADS-B
Wed 05:37:35 AM 38.6770 18.3700 107° East 488 562 37,000  Level FlightAware ADS-B
Wed 05:38:09 AM 38.6550 18.4620 107° East 488 562 37,000  Level FlightAware ADS-B
Wed 05:38:45 AM 38.6310 18.5640 107° East 488 562 37,000  Level FlightAware ADS-B
Wed 05:39:22 AM 38.6070 18.6640 107° East 488 562 37,000  Level FlightAware ADS-B
Wed 05:39:57 AM 38.5840 18.7620 107° East 487 560 37,000  Level FlightAware ADS-B
Wed 05:40:29 AM 38.5700 18.8160 108° East 487 560 37,000  Level FlightAware ADS-B
Wed 05:41:03 AM 38.5510 18.8830 110° East 487 560 37,000  Level FlightAware ADS-B
Wed 05:41:39 AM 38.5290 18.9660 109° East 487 560 37,000  Level FlightAware ADS-B
Wed 05:42:16 AM 38.5060 19.0520 109° East 487 560 37,000  Level FlightAware ADS-B
Wed 05:42:48 AM 38.4620 19.1810 114° Southeast 488 562 37,000  Level FlightAware ADS-B
Wed 05:43:20 AM 38.4350 19.2730 111° Southeast 488 562 37,000  Level FlightAware ADS-B
Wed 05:43:58 AM 38.4030 19.3810 111° Southeast 489 563 37,000  Level FlightAware ADS-B
Wed 05:44:30 AM 38.3790 19.4610 111° Southeast 489 563 37,000  Level FlightAware ADS-B
Wed 05:45:10 AM 38.3450 19.5730 111° Southeast 491 565 37,000  Level FlightAware ADS-B
Wed 05:45:42 AM 38.3200 19.6600 110° East 491 565 37,000  Level FlightAware ADS-B
Wed 05:46:14 AM 38.2940 19.7440 112° Southeast 492 566 37,000  Level FlightAware ADS-B
Wed 05:46:55 AM 38.2620 19.8530 110° East 492 566 37,000  Level FlightAware ADS-B
Wed 05:47:27 AM 38.2360 19.9390 111° Southeast 493 567 37,000  Level FlightAware ADS-B
Wed 05:48:06 AM 38.1930 20.0810 111° Southeast 493 567 37,000  Level FlightAware ADS-B
Wed 05:48:41 AM 38.1650 20.1730 111° Southeast 493 567 37,000  Level FlightAware ADS-B
Wed 05:49:19 AM 38.1390 20.2610 111° Southeast 493 567 37,000  Level FlightAware ADS-B
Wed 05:49:46 AM 38.1110 20.3510 112° Southeast 494 568 37,000  Level FlightAware ADS-B
Wed 05:50:24 AM 38.0810 20.4540 110° East 495 570 37,000  Level FlightAware ADS-B
Wed 05:51:12 AM 38.0450 20.5740 111° Southeast 495 570 37,000  Level FlightAware ADS-B
Wed 05:51:50 AM 38.0100 20.6890 111° Southeast 497 572 37,000  Level FlightAware ADS-B
Wed 05:52:38 AM 37.9750 20.8090 110° East 497 572 37,000  Level FlightAware ADS-B
Wed 05:53:13 AM 37.9430 20.9120 111° Southeast 497 572 37,000  Level FlightAware ADS-B
Wed 05:53:48 AM 37.9140 21.0080 111° Southeast 497 572 37,000  Level FlightAware ADS-B
Wed 05:54:24 AM 37.8830 21.1050 112° Southeast 497 572 37,000  Level FlightAware ADS-B
Wed 05:54:58 AM 37.8530 21.2000 112° Southeast 497 572 37,000  Level FlightAware ADS-B
Wed 05:55:33 AM 37.8220 21.2960 112° Southeast 497 572 37,000  Level FlightAware ADS-B
Wed 05:56:10 AM 37.7920 21.3920 112° Southeast 498 573 37,000  Level FlightAware ADS-B
Wed 05:56:42 AM 37.7640 21.4810 112° Southeast 497 572 37,000  Level FlightAware ADS-B
Wed 05:57:17 AM 37.7340 21.5750 112° Southeast 497 572 37,000  Level FlightAware ADS-B
Wed 05:57:56 AM 37.7010 21.6800 112° Southeast 498 573 37,000  Level FlightAware ADS-B
Wed 05:58:27 AM 37.6750 21.7610 112° Southeast 498 573 37,000  Level FlightAware ADS-B
Wed 05:59:00 AM 37.6470 21.8520 111° Southeast 498 573 37,000  Level FlightAware ADS-B
Wed 05:59:40 AM 37.6130 21.9580 112° Southeast 498 573 37,000  Level FlightAware ADS-B
Wed 06:00:11 AM 37.5860 22.0430 112° Southeast 499 574 37,000  Level FlightAware ADS-B
Wed 06:00:48 AM 37.5550 22.1420 112° Southeast 499 574 37,000  Level FlightAware ADS-B
Wed 06:01:25 AM 37.5230 22.2410 112° Southeast 498 573 37,000  Level FlightAware ADS-B
Wed 06:01:57 AM 37.4950 22.3300 112° Southeast 499 574 37,000  Level FlightAware ADS-B
Wed 06:02:34 AM 37.4640 22.4260 112° Southeast 499 574 37,000  Level FlightAware ADS-B
Wed 06:03:09 AM 37.4340 22.5190 112° Southeast 499 574 37,000  Level FlightAware ADS-B
Wed 06:03:43 AM 37.4030 22.6140 112° Southeast 498 573 37,000  Level FlightAware ADS-B
Wed 06:04:20 AM 37.3700 22.7150 112° Southeast 499 574 37,000  Level FlightAware ADS-B
Wed 06:04:56 AM 37.3390 22.8120 112° Southeast 498 573 37,000  Level FlightAware ADS-B
Wed 06:05:27 AM 37.3120 22.8940 112° Southeast 498 573 37,000  Level FlightAware ADS-B
Wed 06:06:04 AM 37.2810 22.9910 112° Southeast 498 573 37,000  Level FlightAware ADS-B
Wed 06:06:38 AM 37.2500 23.0850 112° Southeast 498 573 37,000  Level FlightAware ADS-B
Wed 06:07:14 AM 37.2180 23.1790 113° Southeast 498 573 37,000  Level FlightAware ADS-B
Wed 06:07:46 AM 37.1900 23.2640 112° Southeast 498 573 37,000  Level FlightAware ADS-B
Wed 06:08:24 AM 37.1570 23.3630 113° Southeast 497 572 37,000  Level FlightAware ADS-B
Wed 06:09:00 AM 37.1240 23.4610 113° Southeast 497 572 37,000  Level FlightAware ADS-B
Wed 06:09:32 AM 37.0950 23.5460 113° Southeast 497 572 37,000  Level FlightAware ADS-B
Wed 06:10:10 AM 37.0620 23.6460 112° Southeast 497 572 37,000  Level FlightAware ADS-B
Wed 06:10:46 AM 37.0290 23.7420 113° Southeast 498 573 37,000  Level FlightAware ADS-B
Wed 06:11:02 AM 37.0160 23.7810 113° Southeast 497 572 37,000  Level FlightAware ADS-B
Wed 06:11:57 AM 36.9640 23.9320 113° Southeast 498 573 37,000  Level FlightAware ADS-B
Wed 06:12:29 AM 36.9350 24.0160 113° Southeast 498 573 37,000  Level FlightAware ADS-B
Wed 06:13:08 AM 36.9000 24.1170 113° Southeast 498 573 37,000  Level FlightAware ADS-B
Wed 06:13:39 AM 36.8710 24.2020 113° Southeast 498 573 37,000  Level FlightAware ADS-B
Wed 06:14:18 AM 36.8360 24.3030 113° Southeast 499 574 37,000  Level FlightAware ADS-B
Wed 06:14:53 AM 36.8040 24.3920 114° Southeast 499 574 37,000  Level FlightAware ADS-B
Wed 06:15:34 AM 36.7650 24.5040 113° Southeast 499 574 37,000  Level FlightAware ADS-B
Wed 06:16:10 AM 36.7310 24.6000 114° Southeast 499 574 37,000  Level FlightAware ADS-B
Wed 06:16:42 AM 36.7010 24.6860 113° Southeast 500 575 37,000  Level FlightAware ADS-B
Wed 06:17:20 AM 36.6660 24.7850 114° Southeast 500 575 37,000  Level FlightAware ADS-B
Wed 06:17:52 AM 36.6360 24.8690 114° Southeast 500 575 37,000  Level FlightAware ADS-B
Wed 06:18:30 AM 36.6010 24.9680 114° Southeast 500 575 37,000  Level FlightAware ADS-B
Wed 06:19:02 AM 36.5710 25.0500 114° Southeast 500 575 37,000  Level FlightAware ADS-B
Wed 06:19:38 AM 36.5360 25.1480 114° Southeast 500 575 37,000  Level FlightAware ADS-B
Wed 06:20:16 AM 36.5000 25.2460 115° Southeast 501 577 37,000  Level FlightAware ADS-B
Wed 06:20:48 AM 36.4690 25.3310 114° Southeast 501 577 37,000  Level FlightAware ADS-B
Wed 06:21:24 AM 36.4360 25.4250 114° Southeast 501 577 37,000  Level FlightAware ADS-B
Wed 06:22:00 AM 36.4000 25.5210 115° Southeast 502 578 37,000  Level FlightAware ADS-B
Wed 06:22:36 AM 36.3660 25.6140 114° Southeast 502 578 37,000  Level FlightAware ADS-B
Wed 06:23:08 AM 36.3350 25.6980 115° Southeast 502 578 37,000  Level FlightAware ADS-B
Wed 06:23:44 AM 36.3000 25.7940 114° Southeast 502 578 37,000  Level FlightAware ADS-B
Wed 06:24:16 AM 36.2690 25.8770 115° Southeast 502 578 37,000  Level FlightAware ADS-B
Wed 06:24:55 AM 36.2310 25.9780 115° Southeast 503 579 37,000  Level FlightAware ADS-B
Wed 06:25:31 AM 36.1950 26.0730 115° Southeast 502 578 37,000  Level FlightAware ADS-B
Wed 06:26:03 AM 36.1640 26.1570 115° Southeast 502 578 37,000  Level FlightAware ADS-B
Wed 06:26:39 AM 36.1280 26.2500 116° Southeast 502 578 37,000  Level FlightAware ADS-B
Wed 06:27:15 AM 36.0930 26.3420 115° Southeast 502 578 37,000  Level FlightAware ADS-B
Wed 06:27:51 AM 36.0570 26.4360 115° Southeast 502 578 37,000  Level FlightAware ADS-B
Wed 06:28:23 AM 36.0260 26.5180 115° Southeast 502 578 37,000  Level FlightAware ADS-B
Wed 06:28:59 AM 35.9890 26.6120 116° Southeast 503 579 37,000  Level FlightAware ADS-B
Wed 06:29:35 AM 35.9530 26.7050 116° Southeast 503 579 37,000  Level FlightAware ADS-B
Wed 06:30:08 AM 35.9230 26.7820 116° Southeast 500 575 37,000  Level FlightAware ADS-B
Wed 06:30:44 AM 35.8850 26.8800 116° Southeast 500 575 37,000  Level FlightAware ADS-B
Wed 06:31:26 AM 35.8470 26.9790 115° Southeast 499 574 37,000  Level FlightAware ADS-B
Wed 06:32:00 AM 35.8060 27.0810 116° Southeast 503 579 37,000  Level FlightAware ADS-B
Wed 06:32:38 AM 35.7670 27.1790 116° Southeast 503 579 37,000  Level FlightAware ADS-B
Wed 06:33:12 AM 35.7330 27.2660 116° Southeast 503 579 37,000  Level FlightAware ADS-B
Wed 06:33:46 AM 35.6980 27.3540 116° Southeast 504 580 37,000  Level FlightAware ADS-B
Wed 06:34:24 AM 35.6600 27.4500 116° Southeast 503 579 37,000  Level FlightAware ADS-B
Wed 06:34:56 AM 35.6270 27.5330 116° Southeast 503 579 37,000  Level FlightAware ADS-B
Wed 06:35:32 AM 35.5890 27.6270 116° Southeast 504 580 37,000  Level FlightAware ADS-B
Wed 06:36:08 AM 35.5530 27.7170 116° Southeast 504 580 37,000  Level FlightAware ADS-B
Wed 06:36:42 AM 35.5170 27.8050 117° Southeast 502 578 37,000  Level FlightAware ADS-B
Wed 06:37:16 AM 35.4820 27.8910 117° Southeast 503 579 37,000  Level FlightAware ADS-B
Wed 06:37:54 AM 35.4420 27.9900 116° Southeast 502 578 37,000  Level FlightAware ADS-B
Wed 06:38:26 AM 35.4080 28.0720 117° Southeast 502 578 37,000  Level FlightAware ADS-B
Wed 06:39:00 AM 35.3730 28.1580 117° Southeast 503 579 37,000  Level FlightAware ADS-B
Wed 06:39:35 AM 35.3430 28.2310 117° Southeast 503 579 37,000  Level FlightAware ADS-B
Wed 06:40:10 AM 35.2990 28.3360 117° Southeast 503 579 37,000  Level FlightAware ADS-B
Wed 06:40:44 AM 35.2640 28.4210 117° Southeast 503 579 37,000  Level FlightAware ADS-B
Wed 06:41:22 AM 35.2240 28.5170 117° Southeast 504 580 37,000  Level FlightAware ADS-B
Wed 06:41:58 AM 35.1850 28.6090 117° Southeast 504 580 37,000  Level FlightAware ADS-B
Wed 06:42:40 AM 35.1440 28.7090 117° Southeast 505 581 37,000  Level FlightAware ADS-B
Wed 06:43:12 AM 35.1070 28.7980 117° Southeast 506 582 37,000  Level FlightAware ADS-B
Wed 06:43:46 AM 35.0720 28.8810 117° Southeast 482 555 37,000  Level FlightAware ADS-B
Wed 06:44:20 AM 35.0360 28.9680 117° Southeast 507 583 37,000  Level FlightAware ADS-B
Wed 06:44:58 AM 35.0020 29.0510 117° Southeast 507 583 37,000  Level FlightAware ADS-B
Wed 06:45:32 AM 34.9580 29.1520 118° Southeast 506 582 37,000  Level FlightAware ADS-B
Wed 06:46:13 AM 34.9160 29.2510 117° Southeast 503 579 37,000  Level FlightAware ADS-B
Wed 06:46:50 AM 34.8840 29.3310 116° Southeast 503 579 37,000  Level FlightAware ADS-B
Wed 06:47:26 AM 34.8350 29.4390 119° Southeast 506 582 37,000  Level FlightAware ADS-B
Wed 06:48:14 AM 34.7860 29.5550 117° Southeast 503 579 37,000  Level FlightAware ADS-B
Wed 06:48:50 AM 34.7450 29.6490 118° Southeast 503 579 37,000  Level FlightAware ADS-B
Wed 06:49:25 AM 34.7070 29.7380 117° Southeast 503 579 37,000  Level FlightAware ADS-B
Wed 06:50:17 AM 34.6560 29.8610 117° Southeast 503 579 37,000  Level FlightAware ADS-B
Wed 06:50:53 AM 34.6250 29.9380 116° Southeast 503 579 37,000  Level FlightAware ADS-B
Wed 06:51:31 AM 34.5660 30.0520 122° Southeast 503 579 37,000  Level FlightAware ADS-B
Wed 06:52:10 AM 34.5170 30.1490 121° Southeast 503 579 37,000  Level FlightAware ADS-B
Wed 06:52:45 AM 34.4740 30.2340 122° Southeast 509 586 37,000  Level FlightAware ADS-B
Wed 06:53:20 AM 34.4320 30.3190 121° Southeast 509 586 37,000  Level FlightAware ADS-B
Wed 06:53:56 AM 34.3900 30.4040 121° Southeast 509 586 37,000  Level FlightAware ADS-B
Wed 06:54:35 AM 34.3420 30.5020 121° Southeast 509 586 37,000  Level FlightAware ADS-B
Wed 06:55:06 AM 34.3040 30.5770 122° Southeast 510 587 37,000  Level FlightAware ADS-B
Wed 06:55:41 AM 34.2610 30.6650 121° Southeast 508 585 37,000  Level FlightAware ADS-B
Wed 06:56:17 AM 34.2190 30.7490 121° Southeast 510 587 37,000  Level FlightAware ADS-B
Wed 06:56:51 AM 34.1760 30.8370 121° Southeast 511 588 37,000  Level FlightAware ADS-B
Wed 06:57:27 AM 34.1320 30.9240 121° Southeast 511 588 37,000  Level FlightAware ADS-B
Wed 06:58:01 AM 34.0900 31.0090 121° Southeast 498 573 37,000  Level FlightAware ADS-B
Wed 06:58:39 AM 34.0440 31.1000 121° Southeast 492 566 37,000  Level FlightAware ADS-B
Wed 06:59:16 AM 34.0020 31.1850 121° Southeast 490 564 37,000  Level FlightAware ADS-B
Wed 06:59:52 AM 33.9610 31.2680 121° Southeast 489 563 37,000  Level FlightAware ADS-B
Wed 07:00:27 AM 33.9200 31.3500 121° Southeast 493 567 37,000  Level FlightAware ADS-B
Wed 07:01:02 AM 33.8770 31.4350 121° Southeast 495 570 37,000  Level FlightAware ADS-B
Wed 07:01:42 AM 33.8290 31.5300 121° Southeast 497 572 37,000  Level FlightAware ADS-B
Wed 07:02:13 AM 33.7950 31.6030 119° Southeast 500 575 37,000  Level FlightAware ADS-B
Wed 07:02:33 AM 33.7810 31.6520 109° East 508 585 37,000  Level FlightAware ADS-B
Wed 07:03:07 AM 33.7650 31.7550 101° East 512 589 37,000  Level FlightAware ADS-B
Wed 07:03:43 AM 33.7500 31.8550 100° East 515 593 37,000  Level FlightAware ADS-B
Wed 07:04:22 AM 33.7330 31.9660 100° East 515 593 37,000  Level FlightAware ADS-B
Wed 07:04:53 AM 33.7200 32.0520 100° East 517 595 37,000  Level FlightAware ADS-B
Wed 07:05:30 AM 33.7040 32.1580 100° East 518 596 37,000  Level FlightAware ADS-B
Wed 07:06:07 AM 33.6870 32.2620 101° East 518 596 37,000  Level FlightAware ADS-B
Wed 07:06:42 AM 33.6720 32.3610 100° East 518 596 37,000  Level FlightAware ADS-B
Wed 07:07:13 AM 33.6590 32.4460 100° East 519 597 37,000  Level FlightAware ADS-B
Wed 07:07:52 AM 33.6420 32.5600 100° East 518 596 37,000  Level FlightAware ADS-B
Wed 07:08:23 AM 33.6280 32.6460 101° East 519 597 37,000  Level FlightAware ADS-B
Wed 07:08:57 AM 33.6130 32.7420 101° East 520 598 37,000  Level FlightAware ADS-B
Wed 07:09:17 AM 33.6010 32.8000 104° East 512 589 37,000  Level FlightAware ADS-B
Wed 07:09:43 AM 33.5740 32.8580 119° Southeast 503 579 37,000  Level FlightAware ADS-B
Wed 07:10:02 AM 33.5420 32.9010 132° Southeast 493 567 37,000 -480 Level FlightAware ADS-B
Wed 07:10:33 AM 33.4810 32.9450 149° Southeast 472 543 36,600 -960 Descending FlightAware ADS-B
Wed 07:10:52 AM 33.4440 32.9570 165° South 463 533 36,200 -1,448 Descending FlightAware ADS-B
Wed 07:11:02 AM 33.4230 32.9600 173° South 457 526 35,900 -1,176 Descending FlightAware ADS-B
Wed 07:11:43 AM 33.3390 32.9670 176° South 448 516 35,200 -1,182 Descending FlightAware ADS-B
Wed 07:12:08 AM 33.2830 32.9720 176° South 456 525 34,600 -1,472 Descending FlightAware ADS-B
Wed 07:12:36 AM 33.2260 33.0050 154° Southeast 483 556 33,900 -1,500 Descending FlightAware ADS-B
Wed 07:12:44 AM 33.2130 33.0190 138° Southeast 492 566 33,700 -1,435 Descending FlightAware ADS-B
Wed 07:13:22 AM 33.1570 33.1030 129° Southeast 502 578 32,800 -1,308 Descending FlightAware ADS-B
Wed 07:14:02 AM 33.1030 33.1910 126° Southeast 502 578 32,000 -1,135 Descending FlightAware ADS-B
Wed 07:14:36 AM 33.0560 33.2650 127° Southeast 500 575 31,400 -1,108 Descending FlightAware ADS-B
Wed 07:15:07 AM 33.0130 33.3340 127° Southeast 499 574 30,800 -1,114 Descending FlightAware ADS-B
Wed 07:15:46 AM 32.9570 33.4220 127° Southeast 498 573 30,100 -1,184 Descending FlightAware ADS-B
Wed 07:16:23 AM 32.9080 33.5020 126° Southeast 497 572 29,300 -1,333 Descending FlightAware ADS-B
Wed 07:16:58 AM 32.8600 33.5780 127° Southeast 475 547 28,500 -1,619 Descending FlightAware ADS-B
Wed 07:17:26 AM 32.8320 33.6420 117° Southeast 466 536 27,600 -2,694 Descending FlightAware ADS-B
Wed 07:17:47 AM 32.8230 33.6930 102° East 477 549 26,300 -3,643 Descending FlightAware ADS-B
Wed 07:18:22 AM 32.8190 33.7870 93° East 483 556 24,200 -3,618 Descending FlightAware ADS-B
Wed 07:18:55 AM 32.8140 33.8740 94° East 487 560 22,200 -3,618 Descending FlightAware ADS-B
Wed 07:19:30 AM 32.8090 33.9690 94° East 484 557 20,100 -3,304 Descending FlightAware ADS-B
Wed 07:20:04 AM 32.8020 34.0580 95° East 471 542 18,400 -3,321 Descending FlightAware ADS-B
Wed 07:20:26 AM 32.7840 34.1100 112° Southeast 457 526 17,000 -3,692 Descending FlightAware ADS-B
Wed 07:20:43 AM 32.7650 34.1440 124° Southeast 445 512 16,000 -3,667 Descending FlightAware ADS-B
Wed 07:21:02 AM 32.7390 34.1770 133° Southeast 435 501 14,800 -3,600 Descending FlightAware ADS-B
Wed 07:21:23 AM 32.7060 34.2020 147° Southeast 422 486 13,600 -3,150 Descending FlightAware ADS-B
Wed 07:21:42 AM 32.6700 34.2180 159° South 403 464 12,700 -3,409 Descending FlightAware ADS-B
Wed 07:22:07 AM 32.6260 34.2230 175° South 393 452 11,100 -2,893 Descending FlightAware ADS-B
Wed 07:22:38 AM 32.5680 34.2220 181° South 364 419 10,000 -1,065 Descending FlightAware ADS-B
Wed 07:23:09 AM 32.5230 34.2210 181° South 313 360 10,000  Level FlightAware ADS-B
Wed 07:23:35 AM 32.4860 34.2210 180° South 294 338 10,000 -1,200 Level FlightAware ADS-B
Wed 07:24:19 AM 32.4260 34.2330 170° South 305 351 8,600 -1,846 Descending FlightAware ADS-B
Wed 07:24:27 AM 32.4170 34.2410 143° Southeast 308 354 8,400 -1,071 Descending FlightAware ADS-B
Wed 07:24:47 AM 32.3970 34.2650 135° Southeast 300 345 8,100 -789 Descending FlightAware ADS-B
Wed 07:25:05 AM 32.3820 34.2850 132° Southeast 294 338 7,900 -360 Descending FlightAware ADS-B
Wed 07:25:37 AM 32.3550 34.3180 134° Southeast 292 336 7,800 -575 Descending FlightAware ADS-B
Wed 07:28:00 AM 32.1336 34.6164 140° Southeast  Level FlightAware Approximate
Wed 07:29:00 AM 32.0601 34.7580 115° Southeast  Level FlightAware Approximate
Wed 07:30:00 AM 32.0000 34.8667 125° Southeast  Level FlightAware Approximate
Wed 07:30:18 AM 32.1640 34.6420 125° Southeast 240 276 4,900  Level FlightAware ADS-B
Wed 07:30:45 AM 32.1450 34.6770 123° Southeast 234 269 4,900  Level FlightAware ADS-B
Wed 07:31:05 AM 32.1350 34.6960 122° Southeast 236 272 4,900  Level FlightAware ADS-B
Wed 07:31:23 AM 32.1240 34.7170 122° Southeast 236 272 4,900  Level FlightAware ADS-B
Wed 07:31:41 AM 32.1150 34.7310 127° Southeast 232 267 4,900 -286 Level FlightAware ADS-B
Wed 07:32:05 AM 32.0950 34.7560 133° Southeast 230 265 4,700 -269 Descending FlightAware ADS-B
Wed 07:32:48 AM 32.0640 34.7920 135° Southeast 230 265 4,600 -833 Descending FlightAware ADS-B
Wed 07:33:17 AM 32.0800 34.7730 315° West 226 260 3,700 -1,756 Descending FlightAware ADS-B
Wed 07:33:29 AM 32.0330 34.8310 134° Southeast 226 260 3,400 -1,636 Descending FlightAware ADS-B
Wed 07:33:39 AM 32.0300 34.8430 106° East 216 249 3,100 -1,059 Descending FlightAware ADS-B
Wed 07:34:03 AM 32.0320 34.8670 84° East 203 234 2,800 -421 Descending FlightAware ADS-B
Wed 07:34:36 AM 32.0390 34.9000 76° East 199 229 2,700 -182 Descending FlightAware ADS-B
Wed 07:37:00 AM 32.0095 34.8769 125° Southeast  Level Estimated

Login

Don't have an account? Register now (free) for customized features, flight alerts, and more!